createdAt,value
2022-12-29T00:00:09.658Z,99787.13
2022-12-29T00:02:43.931Z,99780.22
2022-12-29T00:05:10.979Z,99769.06
2022-12-29T00:07:37.675Z,99771.53
2022-12-29T00:10:05.160Z,99773.94
2022-12-29T00:12:51.759Z,99765.13
2022-12-29T00:15:36.864Z,99772.94
2022-12-29T00:18:03.718Z,99768.44
2022-12-29T00:20:49.244Z,99769.34
2022-12-29T00:23:34.456Z,99763.88
2022-12-29T00:26:23.490Z,99770.03
2022-12-29T00:29:10.826Z,99758.00
2022-12-29T00:31:56.089Z,99774.88
2022-12-29T00:34:41.382Z,99759.94
2022-12-29T00:37:07.984Z,99770.38
2022-12-29T00:39:53.593Z,99761.34
2022-12-29T00:42:38.795Z,99756.78
2022-12-29T00:45:06.236Z,99753.34
2022-12-29T00:47:32.763Z,99749.03
2022-12-29T00:49:59.186Z,99753.13
2022-12-29T00:52:25.744Z,99757.97
2022-12-29T00:54:52.524Z,99751.13
2022-12-29T00:57:19.227Z,99759.88
2022-12-29T00:59:46.473Z,99757.41
2022-12-29T01:02:16.297Z,99760.16
2022-12-29T01:04:43.659Z,99751.34
2022-12-29T01:07:10.200Z,99750.34
2022-12-29T01:09:56.250Z,99754.78
2022-12-29T01:12:41.749Z,99750.78
2022-12-29T01:15:14.341Z,99759.22
2022-12-29T01:17:42.085Z,99759.38
2022-12-29T01:20:09.303Z,99744.97
2022-12-29T01:22:35.870Z,99742.81
2022-12-29T01:25:03.281Z,99744.97
2022-12-29T01:27:49.768Z,99743.09
2022-12-29T01:30:36.790Z,99743.50
2022-12-29T01:33:23.194Z,99740.84
2022-12-29T01:36:16.947Z,99750.78
2022-12-29T01:39:03.705Z,99750.34
2022-12-29T01:41:50.360Z,99749.44
2022-12-29T01:44:53.350Z,99743.44
2022-12-29T01:47:34.809Z,99767.63
2022-12-29T01:50:33.280Z,99756.19
2022-12-29T01:53:04.237Z,99756.34
2022-12-29T01:55:34.722Z,99764.94
2022-12-29T01:58:05.024Z,99758.94
2022-12-29T02:00:31.747Z,99756.78
2022-12-29T02:02:58.553Z,99764.75
2022-12-29T02:05:37.227Z,99765.13
2022-12-29T02:08:04.214Z,99756.38
2022-12-29T02:10:33.864Z,99772.09
2022-12-29T02:13:00.485Z,99773.16
2022-12-29T02:15:39.205Z,99763.50
2022-12-29T02:18:32.471Z,99767.28
2022-12-29T02:21:14.499Z,99749.22
2022-12-29T02:24:08.553Z,99756.78
2022-12-29T02:27:03.285Z,99750.06
2022-12-29T02:29:48.584Z,99758.09
2022-12-29T02:32:39.939Z,99756.56
2022-12-29T02:35:14.732Z,99752.13
2022-12-29T02:38:07.725Z,99755.06
2022-12-29T02:40:54.200Z,99754.22
2022-12-29T02:43:51.330Z,99740.50
2022-12-29T02:46:30.137Z,99739.50
2022-12-29T02:49:07.117Z,99735.75
2022-12-29T02:52:01.301Z,99729.97
2022-12-29T02:54:43.956Z,99722.78
2022-12-29T02:57:20.931Z,99721.78
2022-12-29T02:59:52.672Z,99719.19
2022-12-29T03:02:46.079Z,99717.97
2022-12-29T03:05:34.315Z,99725.19
2022-12-29T03:08:12.843Z,99714.53
2022-12-29T03:10:52.299Z,99712.06
2022-12-29T03:14:04.726Z,99712.84
2022-12-29T03:16:54.499Z,99695.34
2022-12-29T03:19:27.335Z,99699.47
2022-12-29T03:22:22.112Z,99699.03
2022-12-29T03:25:06.120Z,99696.97
2022-12-29T03:27:41.924Z,99692.66
2022-12-29T03:30:10.141Z,99678.84
2022-12-29T03:32:44.474Z,99691.63
2022-12-29T03:35:15.926Z,99678.38
2022-12-29T03:37:50.959Z,99671.25
2022-12-29T03:40:19.174Z,99675.69
2022-12-29T03:42:47.916Z,99681.13
2022-12-29T03:45:15.440Z,99707.16
2022-12-29T03:47:42.201Z,99681.75
2022-12-29T03:50:09.625Z,99671.16
2022-12-29T03:52:40.450Z,99667.94
2022-12-29T03:55:07.542Z,99657.72
2022-12-29T03:57:34.361Z,99651.50
2022-12-29T04:00:07.267Z,99651.75
2022-12-29T04:02:42.037Z,99643.84
2022-12-29T04:05:12.065Z,99647.44
2022-12-29T04:07:38.560Z,99640.06
2022-12-29T04:10:06.208Z,99643.22
2022-12-29T04:12:34.788Z,99650.22
2022-12-29T04:15:02.416Z,99642.22
2022-12-29T04:17:29.425Z,99649.13
2022-12-29T04:20:16.015Z,99645.53
2022-12-29T04:22:43.633Z,99638.38
2022-12-29T04:25:10.294Z,99640.25
2022-12-29T04:27:37.998Z,99634.00
2022-12-29T04:30:32.722Z,99643.78
2022-12-29T04:33:05.575Z,99636.72
2022-12-29T04:35:32.129Z,99635.59
2022-12-29T04:37:59.117Z,99627.94
2022-12-29T04:40:26.130Z,99622.56
2022-12-29T04:42:52.943Z,99626.28
2022-12-29T04:45:21.098Z,99626.78
2022-12-29T04:48:20.116Z,99621.41
2022-12-29T04:51:04.507Z,99623.69
2022-12-29T04:53:37.058Z,99627.31
2022-12-29T04:56:05.415Z,99633.81
2022-12-29T04:58:32.562Z,99629.53
2022-12-29T05:01:00.585Z,99633.97
2022-12-29T05:03:30.605Z,99637.34
2022-12-29T05:05:58.077Z,99634.28
2022-12-29T05:08:28.333Z,99639.66
2022-12-29T05:10:57.675Z,99646.34
2022-12-29T05:13:24.098Z,99646.34
2022-12-29T05:15:53.132Z,99663.16
2022-12-29T05:18:21.129Z,99644.81
2022-12-29T05:20:48.833Z,99651.41
2022-12-29T05:23:16.376Z,99653.34
2022-12-29T05:25:46.021Z,99657.31
2022-12-29T05:28:22.246Z,99644.44
2022-12-29T05:30:52.694Z,99653.03
2022-12-29T05:33:20.132Z,99652.19
2022-12-29T05:35:48.970Z,99652.84
2022-12-29T05:38:15.604Z,99643.59
2022-12-29T05:40:44.650Z,99653.41
2022-12-29T05:43:27.623Z,99644.44
2022-12-29T05:46:20.561Z,99643.25
2022-12-29T05:48:58.095Z,99641.75
2022-12-29T05:51:45.137Z,99635.31
2022-12-29T05:54:13.547Z,99636.53
2022-12-29T05:56:41.531Z,99625.66
2022-12-29T05:59:09.040Z,99644.28
2022-12-29T06:01:36.686Z,99636.25
2022-12-29T06:04:03.537Z,99632.78
2022-12-29T06:06:31.760Z,99649.75
2022-12-29T06:08:58.559Z,99623.88
2022-12-29T06:11:25.035Z,99637.03
2022-12-29T06:13:58.162Z,99626.72
2022-12-29T06:16:24.931Z,99636.16
2022-12-29T06:18:55.108Z,99632.72
2022-12-29T06:21:22.535Z,99624.81
2022-12-29T06:23:49.267Z,99620.09
2022-12-29T06:26:15.699Z,99628.69
2022-12-29T06:28:43.718Z,99613.78
2022-12-29T06:31:11.912Z,99625.88
2022-12-29T06:33:39.424Z,99623.38
2022-12-29T06:36:06.579Z,99618.41
2022-12-29T06:38:33.387Z,99621.84
2022-12-29T06:41:00.635Z,99621.16
2022-12-29T06:43:46.094Z,99615.78
2022-12-29T06:46:21.484Z,99617.41
2022-12-29T06:48:48.349Z,99612.34
2022-12-29T06:51:15.097Z,99620.78
2022-12-29T06:53:41.709Z,99623.97
2022-12-29T06:56:09.147Z,99623.13
2022-12-29T06:58:35.640Z,99618.75
2022-12-29T07:01:02.777Z,99610.41
2022-12-29T07:03:29.413Z,99625.16
2022-12-29T07:05:56.089Z,99620.44
2022-12-29T07:08:23.165Z,99614.44
2022-12-29T07:10:49.697Z,99604.06
2022-12-29T07:13:16.706Z,99610.13
2022-12-29T07:15:43.974Z,99615.28
2022-12-29T07:18:10.449Z,99608.22
2022-12-29T07:20:37.011Z,99618.34
2022-12-29T07:23:04.236Z,99608.50
2022-12-29T07:25:30.793Z,99623.66
2022-12-29T07:27:57.628Z,99622.72
2022-12-29T07:30:25.122Z,99614.03
2022-12-29T07:32:51.599Z,99615.06
2022-12-29T07:35:18.327Z,99633.84
2022-12-29T07:37:45.685Z,99626.94
2022-12-29T07:40:12.980Z,99626.88
2022-12-29T07:42:39.727Z,99633.63
2022-12-29T07:45:10.185Z,99625.44
2022-12-29T07:47:51.222Z,99628.88
2022-12-29T07:50:18.187Z,99633.94
2022-12-29T07:52:45.976Z,99632.41
2022-12-29T07:55:12.530Z,99631.41
2022-12-29T07:57:39.418Z,99638.34
2022-12-29T08:00:07.067Z,99638.94
2022-12-29T08:02:39.112Z,99646.78
2022-12-29T08:05:06.520Z,99654.44
2022-12-29T08:07:33.024Z,99657.06
2022-12-29T08:10:00.220Z,99654.94
2022-12-29T08:12:26.708Z,99648.78
2022-12-29T08:14:53.467Z,99659.91
2022-12-29T08:17:20.166Z,99662.59
2022-12-29T08:19:46.620Z,99670.38
2022-12-29T08:22:15.131Z,99669.97
2022-12-29T08:24:42.046Z,99675.94
2022-12-29T08:27:16.261Z,99689.09
2022-12-29T08:29:46.464Z,99679.31
2022-12-29T08:32:13.892Z,99689.09
2022-12-29T08:34:40.659Z,99681.00
2022-12-29T08:37:07.203Z,99685.56
2022-12-29T08:39:33.795Z,99700.97
2022-12-29T08:42:00.256Z,99687.81
2022-12-29T08:44:27.084Z,99689.66
2022-12-29T08:46:53.745Z,99700.88
2022-12-29T08:49:20.314Z,99695.59
2022-12-29T08:51:47.164Z,99711.09
2022-12-29T08:54:13.695Z,99700.03
2022-12-29T08:56:40.284Z,99704.25
2022-12-29T08:59:06.967Z,99705.09
2022-12-29T09:01:34.775Z,99698.72
2022-12-29T09:04:14.958Z,99696.44
2022-12-29T09:06:44.102Z,99700.97
2022-12-29T09:09:11.238Z,99687.59
2022-12-29T09:11:38.133Z,99696.09
2022-12-29T09:14:05.097Z,99701.41
2022-12-29T09:16:35.254Z,99701.72
2022-12-29T09:19:02.993Z,99711.25
2022-12-29T09:21:29.575Z,99713.25
2022-12-29T09:23:56.088Z,99713.25
2022-12-29T09:26:22.586Z,99716.41
2022-12-29T09:28:49.057Z,99717.25
2022-12-29T09:31:15.577Z,99720.09
2022-12-29T09:33:42.359Z,99711.34
2022-12-29T09:36:09.602Z,99721.03
2022-12-29T09:38:36.813Z,99718.41
2022-12-29T09:41:15.205Z,99720.94
2022-12-29T09:43:55.875Z,99716.41
2022-12-29T09:46:27.261Z,99739.06
2022-12-29T09:48:59.905Z,99736.31
2022-12-29T09:51:26.823Z,99741.09
2022-12-29T09:54:23.995Z,99742.38
2022-12-29T09:56:53.064Z,99757.91
2022-12-29T09:59:26.260Z,99756.78
2022-12-29T10:02:00.926Z,99755.38
2022-12-29T10:04:29.419Z,99745.75
2022-12-29T10:07:29.053Z,99740.53
2022-12-29T10:10:19.830Z,99742.88
2022-12-29T10:13:24.259Z,99758.00
2022-12-29T10:15:56.406Z,99745.75
2022-12-29T10:18:50.787Z,99750.06
2022-12-29T10:21:39.158Z,99750.75
2022-12-29T10:24:11.456Z,99753.75
2022-12-29T10:26:43.769Z,99760.09
2022-12-29T10:29:21.404Z,99760.00
2022-12-29T10:31:55.199Z,99759.25
2022-12-29T10:34:27.416Z,99758.06
2022-12-29T10:37:03.959Z,99763.97
2022-12-29T10:39:36.216Z,99743.78
2022-12-29T10:42:10.897Z,99742.09
2022-12-29T10:44:38.294Z,99760.50
2022-12-29T10:47:11.986Z,99735.34
2022-12-29T10:49:44.238Z,99734.25
2022-12-29T10:52:12.475Z,99728.84
2022-12-29T10:54:56.184Z,99730.28
2022-12-29T10:57:40.948Z,99743.28
2022-12-29T11:00:13.620Z,99738.13
2022-12-29T11:02:49.030Z,99735.28
2022-12-29T11:05:53.188Z,99731.63
2022-12-29T11:08:27.616Z,99749.03
2022-12-29T11:11:09.337Z,99731.63
2022-12-29T11:14:03.436Z,99735.28
2022-12-29T11:16:32.857Z,99741.59
2022-12-29T11:19:01.105Z,99747.53
2022-12-29T11:21:41.134Z,99748.53
2022-12-29T11:24:19.664Z,99756.06
2022-12-29T11:26:49.519Z,99753.59
2022-12-29T11:29:43.267Z,99753.34
2022-12-29T11:32:28.810Z,99757.03
2022-12-29T11:34:55.494Z,99756.28
2022-12-29T11:37:30.243Z,99763.28
2022-12-29T11:40:05.688Z,99761.34
2022-12-29T11:42:37.945Z,99755.03
2022-12-29T11:45:10.944Z,99751.56
2022-12-29T11:47:37.935Z,99751.41
2022-12-29T11:50:07.893Z,99747.09
2022-12-29T11:52:40.238Z,99758.31
2022-12-29T11:55:18.809Z,99755.94
2022-12-29T11:57:46.344Z,99757.88
2022-12-29T12:00:20.683Z,99754.75
2022-12-29T12:02:56.375Z,99752.25
2022-12-29T12:05:42.506Z,99743.66
2022-12-29T12:08:21.024Z,99755.03
2022-12-29T12:10:55.977Z,99757.56
2022-12-29T12:13:38.264Z,99763.81
2022-12-29T12:16:20.067Z,99760.34
2022-12-29T12:18:54.572Z,99762.06
2022-12-29T12:21:44.864Z,99760.34
2022-12-29T12:24:24.240Z,99761.69
2022-12-29T12:27:05.584Z,99761.88
2022-12-29T12:29:42.132Z,99768.59
2022-12-29T12:32:17.941Z,99790.22
2022-12-29T12:34:46.223Z,99775.81
2022-12-29T12:37:31.506Z,99783.22
2022-12-29T12:40:31.853Z,99767.53
2022-12-29T12:43:27.239Z,99789.53
2022-12-29T12:46:13.880Z,99773.94
2022-12-29T12:49:13.465Z,99772.31
2022-12-29T12:52:06.454Z,99765.25
2022-12-29T12:55:10.659Z,99764.63
2022-12-29T12:57:59.577Z,99771.06
2022-12-29T13:00:28.258Z,99756.47
2022-12-29T13:03:29.910Z,99750.84
2022-12-29T13:06:13.562Z,99754.78
2022-12-29T13:08:50.326Z,99747.69
2022-12-29T13:11:35.150Z,99738.75
2022-12-29T13:14:24.359Z,99738.06
2022-12-29T13:17:03.105Z,99748.38
2022-12-29T13:19:35.909Z,99742.72
2022-12-29T13:22:19.979Z,99743.31
2022-12-29T13:24:55.457Z,99743.31
2022-12-29T13:27:37.874Z,99733.84
2022-12-29T13:30:18.656Z,99747.00
2022-12-29T13:33:05.832Z,99754.69
2022-12-29T13:35:53.738Z,99748.47
2022-12-29T13:38:47.718Z,99751.84
2022-12-29T13:41:20.039Z,99737.66
2022-12-29T13:43:48.788Z,99743.97
2022-12-29T13:46:22.489Z,99739.09
2022-12-29T13:49:13.646Z,99748.88
2022-12-29T13:51:48.595Z,99743.81
2022-12-29T13:54:40.711Z,99754.53
2022-12-29T13:57:22.689Z,99749.75
2022-12-29T13:59:59.952Z,99750.75
2022-12-29T14:02:47.002Z,99761.34
2022-12-29T14:05:23.403Z,99749.59
2022-12-29T14:07:58.886Z,99762.31
2022-12-29T14:10:31.398Z,99760.09
2022-12-29T14:13:05.768Z,99773.72
2022-12-29T14:15:34.545Z,99776.16
2022-12-29T14:18:19.708Z,99785.06
2022-12-29T14:20:59.268Z,99776.03
2022-12-29T14:23:35.735Z,99772.72
2022-12-29T14:26:05.568Z,99779.47
2022-12-29T14:28:40.671Z,99785.97
2022-12-29T14:31:16.251Z,99799.47
2022-12-29T14:34:11.594Z,99784.91
2022-12-29T14:36:40.635Z,99789.34
2022-12-29T14:39:37.568Z,99793.84
2022-12-29T14:42:11.874Z,99802.66
2022-12-29T14:44:54.074Z,99816.00
2022-12-29T14:47:27.875Z,99809.16
2022-12-29T14:49:55.921Z,99799.81
2022-12-29T14:52:26.677Z,99799.72
2022-12-29T14:55:01.217Z,99808.69
2022-12-29T14:57:34.650Z,99820.94
2022-12-29T15:00:23.251Z,99819.38
2022-12-29T15:03:45.759Z,99815.16
2022-12-29T15:06:17.834Z,99819.03
2022-12-29T15:08:52.917Z,99829.97
2022-12-29T15:11:23.185Z,99820.72
2022-12-29T15:13:50.710Z,99828.34
2022-12-29T15:16:36.979Z,99825.66
2022-12-29T15:19:06.122Z,99808.25
2022-12-29T15:21:37.328Z,99813.47
2022-12-29T15:24:05.089Z,99804.09
2022-12-29T15:26:40.626Z,99806.56
2022-12-29T15:29:36.605Z,99815.97
2022-12-29T15:32:15.881Z,99820.28
2022-12-29T15:34:47.918Z,99824.00
2022-12-29T15:37:22.842Z,99834.22
2022-12-29T15:39:49.600Z,99839.63
2022-12-29T15:42:51.723Z,99837.66
2022-12-29T15:45:18.514Z,99847.22
2022-12-29T15:47:49.883Z,99854.16
2022-12-29T15:50:31.921Z,99858.47
2022-12-29T15:53:00.310Z,99853.75
2022-12-29T15:55:31.212Z,99862.38
2022-12-29T15:57:59.761Z,99876.38
2022-12-29T16:00:34.938Z,99864.25
2022-12-29T16:03:05.392Z,99863.56
2022-12-29T16:05:34.674Z,99868.84
2022-12-29T16:08:02.405Z,99873.63
2022-12-29T16:10:42.803Z,99882.22
2022-12-29T16:13:24.845Z,99877.88
2022-12-29T16:15:55.516Z,99881.56
2022-12-29T16:18:29.602Z,99886.59
2022-12-29T16:20:57.596Z,99885.06
2022-12-29T16:23:31.226Z,99887.75
2022-12-29T16:25:58.760Z,99899.06
2022-12-29T16:28:39.937Z,99897.06
2022-12-29T16:31:16.326Z,99896.28
2022-12-29T16:33:48.471Z,99898.81
2022-12-29T16:36:32.523Z,99897.97
2022-12-29T16:39:27.383Z,99902.53
2022-12-29T16:41:55.655Z,99893.75
2022-12-29T16:44:23.718Z,99903.97
2022-12-29T16:46:59.994Z,99909.19
2022-12-29T16:49:27.810Z,99898.88
2022-12-29T16:51:56.219Z,99905.34
2022-12-29T16:54:25.507Z,99912.38
2022-12-29T16:56:53.702Z,99913.28
2022-12-29T16:59:43.801Z,99916.75
2022-12-29T17:02:21.523Z,99919.28
2022-12-29T17:04:50.809Z,99919.28
2022-12-29T17:07:20.312Z,99925.41
2022-12-29T17:09:47.152Z,99928.75
2022-12-29T17:12:24.214Z,99928.84
2022-12-29T17:14:58.647Z,99930.44
2022-12-29T17:17:54.423Z,99936.28
2022-12-29T17:20:31.963Z,99937.34
2022-12-29T17:23:00.557Z,99932.94
2022-12-29T17:25:31.981Z,99926.13
2022-12-29T17:27:58.795Z,99927.88
2022-12-29T17:30:33.279Z,99933.03
2022-12-29T17:33:12.617Z,99930.28
2022-12-29T17:35:39.548Z,99922.47
2022-12-29T17:38:34.703Z,99925.97
2022-12-29T17:41:01.883Z,99915.78
2022-12-29T17:43:36.152Z,99910.44
2022-12-29T17:46:06.243Z,99908.69
2022-12-29T17:48:33.489Z,99914.94
2022-12-29T17:51:00.021Z,99921.91
2022-12-29T17:53:29.494Z,99922.94
2022-12-29T17:55:56.468Z,99936.00
2022-12-29T17:58:31.821Z,99924.75
2022-12-29T18:01:01.013Z,99917.66
2022-12-29T18:03:30.992Z,99903.00
2022-12-29T18:05:58.990Z,99908.28
2022-12-29T18:08:25.584Z,99909.19
2022-12-29T18:10:54.508Z,99909.19
2022-12-29T18:13:33.554Z,99917.06
2022-12-29T18:16:02.631Z,99915.97
2022-12-29T18:18:29.471Z,99922.19
2022-12-29T18:20:59.484Z,99920.63
2022-12-29T18:23:39.861Z,99918.81
2022-12-29T18:26:15.459Z,99902.28
2022-12-29T18:28:43.445Z,99905.78
2022-12-29T18:31:25.538Z,99905.00
2022-12-29T18:33:53.321Z,99910.31
2022-12-29T18:36:21.120Z,99910.31
2022-12-29T18:38:48.523Z,99915.59
2022-12-29T18:41:18.294Z,99908.78
2022-12-29T18:43:45.533Z,99909.63
2022-12-29T18:46:18.776Z,99918.66
2022-12-29T18:48:50.689Z,99927.50
2022-12-29T18:51:19.952Z,99931.84
2022-12-29T18:53:47.191Z,99930.16
2022-12-29T18:56:14.261Z,99930.28
2022-12-29T18:58:40.800Z,99940.09
2022-12-29T19:01:19.502Z,99927.25
2022-12-29T19:03:47.444Z,99934.28
2022-12-29T19:06:14.172Z,99934.34
2022-12-29T19:08:41.035Z,99941.22
2022-12-29T19:11:08.581Z,99932.69
2022-12-29T19:13:35.412Z,99931.06
2022-12-29T19:16:02.906Z,99932.69
2022-12-29T19:19:05.706Z,99935.41
2022-12-29T19:21:22.216Z,99926.69
2022-12-29T19:23:49.567Z,99925.13
2022-12-29T19:26:37.988Z,99925.06
2022-12-29T19:29:07.471Z,99923.31
2022-12-29T19:31:34.629Z,99926.69
2022-12-29T19:34:03.204Z,99929.47
2022-12-29T19:36:30.417Z,99927.66
2022-12-29T19:38:57.125Z,99938.91
2022-12-29T19:41:24.566Z,99934.50
2022-12-29T19:43:51.069Z,99942.38
2022-12-29T19:46:19.604Z,99933.59
2022-12-29T19:48:46.305Z,99941.34
2022-12-29T19:51:18.426Z,99947.34
2022-12-29T19:53:46.762Z,99948.25
2022-12-29T19:56:14.457Z,99948.13
2022-12-29T19:58:47.337Z,99955.03
2022-12-29T20:01:17.244Z,99956.84
2022-12-29T20:03:44.903Z,99956.06
2022-12-29T20:06:12.633Z,99964.72
2022-12-29T20:08:39.837Z,99980.31
2022-12-29T20:11:09.309Z,99963.13
2022-12-29T20:13:36.390Z,99953.50
2022-12-29T20:16:06.125Z,99957.13
2022-12-29T20:18:35.547Z,99952.00
2022-12-29T20:21:27.776Z,99959.03
2022-12-29T20:23:54.788Z,99966.00
2022-12-29T20:26:24.904Z,99969.44
2022-12-29T20:28:52.342Z,99986.66
2022-12-29T20:31:28.775Z,99988.63
2022-12-29T20:33:55.856Z,99993.09
2022-12-29T20:36:28.899Z,99988.91
2022-12-29T20:38:56.653Z,100003.59
2022-12-29T20:41:23.465Z,99998.44
2022-12-29T20:43:52.980Z,100009.03
2022-12-29T20:46:21.756Z,100008.06
2022-12-29T20:48:49.744Z,100005.34
2022-12-29T20:51:17.263Z,100006.41
2022-12-29T20:53:43.956Z,100014.28
2022-12-29T20:56:14.319Z,100009.94
2022-12-29T20:59:17.158Z,100012.53
2022-12-29T21:01:28.039Z,100007.28
2022-12-29T21:03:54.757Z,100004.66
2022-12-29T21:06:21.739Z,99999.47
2022-12-29T21:08:50.639Z,99995.13
2022-12-29T21:11:18.454Z,100001.22
2022-12-29T21:13:45.409Z,100000.41
2022-12-29T21:16:13.874Z,100002.97
2022-12-29T21:18:41.691Z,100005.56
2022-12-29T21:21:23.500Z,100004.97
2022-12-29T21:23:50.760Z,100004.03
2022-12-29T21:26:20.375Z,100017.84
2022-12-29T21:28:46.912Z,100018.69
2022-12-29T21:31:27.336Z,100021.28
2022-12-29T21:33:55.094Z,100030.00
2022-12-29T21:36:22.168Z,100031.84
2022-12-29T21:38:49.380Z,100030.25
2022-12-29T21:41:17.512Z,100036.03
2022-12-29T21:44:03.925Z,100038.03
2022-12-29T21:46:31.809Z,100040.59
2022-12-29T21:48:58.366Z,100042.34
2022-12-29T21:51:43.916Z,100049.41
2022-12-29T21:54:29.775Z,100047.81
2022-12-29T21:56:56.307Z,100052.94
2022-12-29T21:59:41.508Z,100059.06
2022-12-29T22:02:53.224Z,100071.25
2022-12-29T22:05:38.934Z,100065.31
2022-12-29T22:08:24.216Z,100071.47
2022-12-29T22:11:09.629Z,100080.03
2022-12-29T22:13:38.240Z,100083.63
2022-12-29T22:16:07.049Z,100081.72
2022-12-29T22:18:33.791Z,100086.88
2022-12-29T22:21:06.173Z,100104.47
2022-12-29T22:23:33.084Z,100102.84
2022-12-29T22:26:05.039Z,100105.50
2022-12-29T22:28:31.825Z,100109.75
2022-12-29T22:30:58.763Z,100111.59
2022-12-29T22:33:25.366Z,100119.41
2022-12-29T22:35:51.920Z,100114.25
2022-12-29T22:38:18.494Z,100108.25
2022-12-29T22:40:45.063Z,100129.81
2022-12-29T22:43:13.403Z,100129.84
2022-12-29T22:45:40.760Z,100128.09
2022-12-29T22:48:08.626Z,100135.09
2022-12-29T22:50:35.392Z,100137.81
2022-12-29T22:53:02.248Z,100139.34
2022-12-29T22:55:28.758Z,100140.97
2022-12-29T22:57:55.246Z,100151.59
2022-12-29T23:00:22.647Z,100153.41
2022-12-29T23:02:50.507Z,100163.66
2022-12-29T23:05:17.235Z,100161.75
2022-12-29T23:07:43.772Z,100162.84
2022-12-29T23:10:10.555Z,100169.75
2022-12-29T23:12:37.489Z,100179.44
2022-12-29T23:15:04.647Z,100175.94
2022-12-29T23:17:31.172Z,100175.94
2022-12-29T23:19:58.014Z,100169.06
2022-12-29T23:22:25.433Z,100174.47
2022-12-29T23:24:51.913Z,100159.97
2022-12-29T23:27:18.747Z,100151.44
2022-12-29T23:29:45.284Z,100152.41
2022-12-29T23:32:12.360Z,100168.00
2022-12-29T23:34:38.971Z,100166.44
2022-12-29T23:37:05.863Z,100170.78
2022-12-29T23:39:32.343Z,100174.19
2022-12-29T23:41:59.154Z,100172.66
2022-12-29T23:44:25.748Z,100168.47
2022-12-29T23:46:52.721Z,100173.69
2022-12-29T23:49:19.525Z,100180.03
2022-12-29T23:51:45.974Z,100179.25
2022-12-29T23:54:12.514Z,100188.72
2022-12-29T23:56:39.985Z,100189.91
2022-12-29T23:59:06.601Z,100201.94
